Time;durP1;ratioP1;P1;durP2;ratioP2;P2;SDS_P1;SDS_P2;PMS_P1;PMS_P2;Temp;Humidity;BMP_temperature;BMP_pressure;BME280_temperature;BME280_humidity;BME280_pressure;Samples;Min_cycle;Max_cycle;Signal;HPM_P1;HPM_P2
2023/11/16 13:29:37;;;;;;;;;12.75;10.25;;;;;;;;5085928;27;13450;-76
2023/11/16 13:32:04;;;;;;;;;15.50;13.00;;;;;;;;5067364;28;10493;-76
2023/11/16 13:34:30;;;;;;;;;15.00;15.00;;;;;;;;5067326;28;8886;-76
2023/11/16 13:36:55;;;;;;;;;17.00;12.00;;;;;;;;5066998;28;10509;-75
2023/11/16 13:39:22;;;;;;;;;15.00;11.00;;;;;;;;5067078;28;8838;-75
2023/11/16 13:41:47;;;;;;;;;14.00;13.00;;;;;;;;5046626;28;8795;-75
2023/11/16 13:44:13;;;;;;;;;13.25;10.50;;;;;;;;5047699;28;10701;-76
2023/11/16 13:46:38;;;;;;;;;13.50;10.50;;;;;;;;5047160;28;8800;-77
2023/11/16 13:49:04;;;;;;;;;12.50;12.50;;;;;;;;5058977;28;8840;-77
2023/11/16 13:51:29;;;;;;;;;11.75;10.75;;;;;;;;5067048;28;8798;-77
2023/11/16 13:53:54;;;;;;;;;13.75;11.00;;;;;;;;5067280;28;8785;-77
2023/11/16 13:56:20;;;;;;;;;12.00;10.00;;;;;;;;5067333;28;8825;-75
2023/11/16 13:58:45;;;;;;;;;12.75;12.00;;;;;;;;5068672;28;8801;-78
2023/11/16 14:01:14;;;;;;;;;13.00;13.00;;;;;;;;5065218;28;8825;-76
2023/11/16 14:03:39;;;;;;;;;9.50;9.00;;;;;;;;5066803;28;8777;-77
2023/11/16 14:06:05;;;;;;;;;9.25;7.00;;;;;;;;5066763;28;10208;-77
2023/11/16 14:08:32;;;;;;;;;11.00;11.00;;;;;;;;5065488;28;8961;-77
2023/11/16 14:10:58;;;;;;;;;8.75;7.25;;;;;;;;5066633;28;10558;-77
2023/11/16 14:13:25;;;;;;;;;10.00;6.00;;;;;;;;5066780;28;10997;-77
2023/11/16 14:15:51;;;;;;;;;12.25;10.00;;;;;;;;5066457;28;8789;-77
2023/11/16 14:18:16;;;;;;;;;13.00;10.00;;;;;;;;5065890;28;10330;-77
2023/11/16 14:20:41;;;;;;;;;7.75;7.25;;;;;;;;5066069;28;8903;-74
2023/11/16 14:23:06;;;;;;;;;11.75;11.75;;;;;;;;5065299;28;8827;-77
2023/11/16 14:25:33;;;;;;;;;17.25;12.00;;;;;;;;5066652;28;8973;-77
2023/11/16 14:27:59;;;;;;;;;13.00;10.50;;;;;;;;5073076;28;9673;-77
2023/11/16 14:30:24;;;;;;;;;12.00;11.00;;;;;;;;5079996;28;10636;-79
2023/11/16 14:32:49;;;;;;;;;12.25;11.00;;;;;;;;5086590;28;8791;-79
2023/11/16 14:35:15;;;;;;;;;14.00;13.50;;;;;;;;5086549;28;8800;-81
2023/11/16 14:37:40;;;;;;;;;13.75;11.00;;;;;;;;5086821;28;8788;-83
2023/11/16 14:40:07;;;;;;;;;10.75;10.75;;;;;;;;5077306;28;8808;-79
2023/11/16 14:42:33;;;;;;;;;7.75;7.25;;;;;;;;5073407;28;8764;-76
2023/11/16 14:44:59;;;;;;;;;10.25;9.75;;;;;;;;5073068;28;10540;-79
2023/11/16 14:47:24;;;;;;;;;10.00;10.00;;;;;;;;5072574;28;10626;-80
2023/11/16 14:49:51;;;;;;;;;6.75;6.75;;;;;;;;5072279;28;8823;-82
2023/11/16 14:52:16;;;;;;;;;6.00;5.25;;;;;;;;5055141;28;9517;-84
2023/11/16 14:54:43;;;;;;;;;6.25;5.75;;;;;;;;5072778;28;10858;-82
2023/11/16 14:57:08;;;;;;;;;8.75;6.75;;;;;;;;5073132;28;8773;-81
2023/11/16 14:59:33;;;;;;;;;6.00;5.50;;;;;;;;5054643;28;11057;-81
2023/11/16 15:01:59;;;;;;;;;9.00;5.25;;;;;;;;5054456;28;8804;-80
2023/11/16 15:04:25;;;;;;;;;4.50;4.00;;;;;;;;5070449;28;8788;-80
2023/11/16 15:06:50;;;;;;;;;5.25;4.25;;;;;;;;5052917;28;9538;-83
2023/11/16 15:09:15;;;;;;;;;4.75;4.00;;;;;;;;5072506;28;8796;-83
2023/11/16 15:11:41;;;;;;;;;5.25;4.00;;;;;;;;5072579;28;8903;-83
2023/11/16 15:14:10;;;;;;;;;7.50;4.00;;;;;;;;5072804;28;8877;-83
2023/11/16 15:16:45;;;;;;;;;3.00;3.00;;;;;;;;5054581;28;8892;-82
2023/11/16 15:19:11;;;;;;;;;7.50;5.00;;;;;;;;5072023;28;10871;-84
2023/11/16 15:21:38;;;;;;;;;8.75;5.00;;;;;;;;5054401;28;11069;-81
2023/11/16 15:24:05;;;;;;;;;5.75;5.00;;;;;;;;5072445;28;8820;-80
2023/11/16 15:26:30;;;;;;;;;5.00;4.50;;;;;;;;5054144;28;10937;-82
2023/11/16 15:28:56;;;;;;;;;5.00;5.00;;;;;;;;5073657;28;10956;-82
2023/11/16 15:31:30;;;;;;;;;5.00;3.25;;;;;;;;5067246;28;8860;-80
2023/11/16 15:33:55;;;;;;;;;8.50;4.00;;;;;;;;5092709;28;9507;-80
2023/11/16 15:36:21;;;;;;;;;6.75;4.00;;;;;;;;5074154;28;10788;-79
2023/11/16 15:38:46;;;;;;;;;6.75;5.50;;;;;;;;5050578;28;8875;-80
2023/11/16 15:41:11;;;;;;;;;9.25;6.50;;;;;;;;5073468;28;8814;-79
2023/11/16 15:43:36;;;;;;;;;9.50;5.25;;;;;;;;5073598;28;8824;-79
2023/11/16 15:46:02;;;;;;;;;3.00;3.00;;;;;;;;5091341;28;8889;-80
2023/11/16 15:48:27;;;;;;;;;8.50;6.00;;;;;;;;5085576;28;8943;-79
2023/11/16 15:50:53;;;;;;;;;8.75;6.00;;;;;;;;5070700;28;8804;-80
2023/11/16 15:53:19;;;;;;;;;8.50;6.50;;;;;;;;5054145;28;8843;-79
2023/11/16 15:55:44;;;;;;;;;7.50;5.00;;;;;;;;5071226;28;10608;-77
2023/11/16 15:58:09;;;;;;;;;6.25;5.50;;;;;;;;5070188;28;8796;-76
2023/11/16 16:00:35;;;;;;;;;8.50;6.00;;;;;;;;5051632;28;8831;-78
2023/11/16 16:03:00;;;;;;;;;6.50;3.50;;;;;;;;5071150;28;8872;-77
2023/11/16 16:05:25;;;;;;;;;2.25;2.00;;;;;;;;5070726;28;8796;-78
2023/11/16 16:07:50;;;;;;;;;10.25;6.25;;;;;;;;5070878;28;8824;-84
2023/11/16 16:10:16;;;;;;;;;8.75;6.00;;;;;;;;5070508;28;8804;-80
2023/11/16 16:12:41;;;;;;;;;5.00;5.00;;;;;;;;5071324;28;8784;-83
2023/11/16 16:15:07;;;;;;;;;6.75;5.00;;;;;;;;5071518;28;8903;-83
2023/11/16 16:17:32;;;;;;;;;2.75;2.75;;;;;;;;5071670;28;8800;-80
2023/11/16 16:19:58;;;;;;;;;5.50;5.25;;;;;;;;5070517;28;8961;-77
2023/11/16 16:22:23;;;;;;;;;5.75;2.00;;;;;;;;5071276;28;8808;-81
2023/11/16 16:24:49;;;;;;;;;5.00;2.75;;;;;;;;5071299;28;8877;-78
2023/11/16 16:27:14;;;;;;;;;5.00;4.50;;;;;;;;5071115;28;8793;-79
2023/11/16 16:29:40;;;;;;;;;10.00;5.00;;;;;;;;5053150;28;8820;-76
2023/11/16 16:32:08;;;;;;;;;3.50;2.50;;;;;;;;5070616;28;8805;-80
2023/11/16 16:34:33;;;;;;;;;6.75;5.75;;;;;;;;5070915;28;8781;-82
2023/11/16 16:36:58;;;;;;;;;6.50;5.75;;;;;;;;5071116;28;10569;-81
2023/11/16 16:39:24;;;;;;;;;6.00;5.50;;;;;;;;5053003;28;8805;-80
2023/11/16 16:41:50;;;;;;;;;8.00;6.25;;;;;;;;5070596;28;8907;-80
2023/11/16 16:44:15;;;;;;;;;6.00;5.25;;;;;;;;5070958;28;8801;-80
2023/11/16 16:46:41;;;;;;;;;10.00;6.75;;;;;;;;5070600;28;8808;-78
2023/11/16 16:49:15;;;;;;;;;13.00;9.75;;;;;;;;5070644;28;8812;-75
2023/11/16 16:51:41;;;;;;;;;5.00;5.00;;;;;;;;5070772;28;8812;-80
2023/11/16 16:54:09;;;;;;;;;10.25;8.00;;;;;;;;5071316;28;10334;-79
2023/11/16 16:56:36;;;;;;;;;6.25;6.25;;;;;;;;5070749;28;10407;-86
2023/11/16 16:59:04;;;;;;;;;9.50;9.25;;;;;;;;5070511;28;10320;-81
2023/11/16 17:01:29;;;;;;;;;6.00;6.00;;;;;;;;5070042;28;10445;-83
2023/11/16 17:03:56;;;;;;;;;11.00;7.50;;;;;;;;5070127;28;10199;-81
2023/11/16 17:06:21;;;;;;;;;8.25;7.25;;;;;;;;5052090;28;8831;-77
2023/11/16 17:08:46;;;;;;;;;11.75;10.25;;;;;;;;5070545;28;10484;-79
2023/11/16 17:11:12;;;;;;;;;5.50;3.75;;;;;;;;5070282;28;8897;-82
2023/11/16 17:13:37;;;;;;;;;4.00;4.00;;;;;;;;5052440;28;8823;-85
2023/11/16 17:16:04;;;;;;;;;3.75;3.75;;;;;;;;5052601;28;8816;-82
2023/11/16 17:18:29;;;;;;;;;7.00;5.00;;;;;;;;5046047;28;8820;-80
2023/11/16 17:20:56;;;;;;;;;2.50;0.75;;;;;;;;5056768;28;10566;-80
2023/11/16 17:23:23;;;;;;;;;8.00;5.50;;;;;;;;5052398;28;10489;-79
2023/11/16 17:25:49;;;;;;;;;7.75;7.50;;;;;;;;5070112;28;10475;-84
2023/11/16 17:28:15;;;;;;;;;9.00;5.50;;;;;;;;5052064;28;10527;-81
2023/11/16 17:30:41;;;;;;;;;5.25;4.00;;;;;;;;5069834;28;10635;-80
2023/11/16 17:33:06;;;;;;;;;5.50;3.50;;;;;;;;5052299;28;10686;-84
2023/11/16 17:35:33;;;;;;;;;8.50;4.25;;;;;;;;5069851;28;8836;-82
2023/11/16 17:37:59;;;;;;;;;7.25;5.75;;;;;;;;5070413;28;9584;-82
2023/11/16 17:40:25;;;;;;;;;8.00;7.00;;;;;;;;5070055;28;10308;-79
2023/11/16 17:42:52;;;;;;;;;5.00;4.00;;;;;;;;5069803;28;8895;-82
2023/11/16 17:45:22;;;;;;;;;7.00;7.00;;;;;;;;5051497;28;10504;-83
2023/11/16 17:47:47;;;;;;;;;7.00;4.25;;;;;;;;5069534;28;10676;-83
2023/11/16 17:50:12;;;;;;;;;7.00;4.00;;;;;;;;5051576;28;10403;-82
2023/11/16 17:52:38;;;;;;;;;6.00;5.25;;;;;;;;5069296;28;8788;-81
2023/11/16 17:55:03;;;;;;;;;6.25;5.00;;;;;;;;5070083;28;8915;-82
2023/11/16 17:57:28;;;;;;;;;6.75;6.00;;;;;;;;5069734;28;9549;-82
2023/11/16 17:59:55;;;;;;;;;7.00;7.00;;;;;;;;5051929;28;8951;-81
2023/11/16 18:02:21;;;;;;;;;6.00;6.00;;;;;;;;5069744;28;8810;-82
2023/11/16 18:04:47;;;;;;;;;5.25;5.25;;;;;;;;5069891;28;10305;-80
2023/11/16 18:07:12;;;;;;;;;6.00;6.00;;;;;;;;5070223;28;8911;-81
2023/11/16 18:09:37;;;;;;;;;3.75;3.00;;;;;;;;5070021;28;12166;-80
2023/11/16 18:12:10;;;;;;;;;4.00;4.00;;;;;;;;5069518;28;9639;-82
2023/11/16 18:14:35;;;;;;;;;4.75;3.25;;;;;;;;5052983;28;8816;-82
2023/11/16 18:17:00;;;;;;;;;5.50;4.00;;;;;;;;5073455;28;10314;-82
2023/11/16 18:19:25;;;;;;;;;5.50;4.00;;;;;;;;5073422;28;8796;-83
2023/11/16 18:21:51;;;;;;;;;3.75;3.00;;;;;;;;5073217;28;8831;-81
2023/11/16 18:24:16;;;;;;;;;4.00;3.75;;;;;;;;5055589;28;8811;-81
2023/11/16 18:26:43;;;;;;;;;4.00;4.00;;;;;;;;5074353;28;8882;-83
2023/11/16 18:29:08;;;;;;;;;4.00;4.00;;;;;;;;5056008;28;8956;-79
2023/11/16 18:31:34;;;;;;;;;5.25;3.25;;;;;;;;5073054;28;10593;-77
2023/11/16 18:34:02;;;;;;;;;4.00;4.00;;;;;;;;5073696;28;8804;-74
2023/11/16 18:36:27;;;;;;;;;7.00;3.25;;;;;;;;5073368;28;9490;-76
2023/11/16 18:38:53;;;;;;;;;4.25;4.25;;;;;;;;5073032;28;10462;-74
2023/11/16 18:41:18;;;;;;;;;6.50;6.50;;;;;;;;5073188;28;8800;-74
2023/11/16 18:43:43;;;;;;;;;4.50;4.00;;;;;;;;5072854;28;8910;-75
2023/11/16 18:46:09;;;;;;;;;4.00;4.00;;;;;;;;5073352;28;8776;-81
2023/11/16 18:48:35;;;;;;;;;8.50;8.25;;;;;;;;5073205;28;8828;-75
2023/11/16 18:51:04;;;;;;;;;5.25;3.75;;;;;;;;5073035;28;8831;-77
2023/11/16 18:53:32;;;;;;;;;3.50;3.00;;;;;;;;5073104;28;8781;-79
2023/11/16 18:55:59;;;;;;;;;3.75;3.00;;;;;;;;5072871;28;10270;-76
2023/11/16 18:58:24;;;;;;;;;4.00;4.00;;;;;;;;5075305;28;11145;-82
2023/11/16 19:00:50;;;;;;;;;7.50;3.00;;;;;;;;5072583;28;10514;-81
2023/11/16 19:03:15;;;;;;;;;3.75;3.00;;;;;;;;5072556;28;9572;-77
2023/11/16 19:05:41;;;;;;;;;6.50;3.00;;;;;;;;5072793;28;8915;-79
2023/11/16 19:08:09;;;;;;;;;3.75;2.75;;;;;;;;5074351;28;8902;-80
2023/11/16 19:10:34;;;;;;;;;6.75;3.00;;;;;;;;5073058;28;8780;-78
2023/11/16 19:13:00;;;;;;;;;3.25;2.00;;;;;;;;5072562;28;10318;-80
2023/11/16 19:15:26;;;;;;;;;4.00;2.00;;;;;;;;5072777;28;8800;-80
2023/11/16 19:17:52;;;;;;;;;3.25;3.25;;;;;;;;5074773;28;10274;-76
2023/11/16 19:20:20;;;;;;;;;5.25;4.00;;;;;;;;5072349;28;8888;-85
2023/11/16 19:22:45;;;;;;;;;5.00;4.25;;;;;;;;5071268;28;10496;-80
2023/11/16 19:25:14;;;;;;;;;3.50;3.50;;;;;;;;5071094;28;11101;-82
2023/11/16 19:27:39;;;;;;;;;6.00;6.00;;;;;;;;5070631;28;8840;-85
2023/11/16 19:30:05;;;;;;;;;4.00;4.00;;;;;;;;5072863;28;10583;-81
2023/11/16 19:32:34;;;;;;;;;7.75;4.00;;;;;;;;5071320;28;8803;-79
2023/11/16 19:35:01;;;;;;;;;11.50;10.00;;;;;;;;5071330;28;10466;-77
2023/11/16 19:37:26;;;;;;;;;6.00;6.00;;;;;;;;5071894;28;11464;-77
2023/11/16 19:39:51;;;;;;;;;7.75;7.75;;;;;;;;5071466;28;10747;-77
2023/11/16 19:42:17;;;;;;;;;7.50;6.25;;;;;;;;5072263;28;9521;-76
2023/11/16 19:44:42;;;;;;;;;4.00;3.75;;;;;;;;5071405;28;8815;-76
2023/11/16 19:47:08;;;;;;;;;7.25;6.25;;;;;;;;5074067;28;8786;-76
2023/11/16 19:49:34;;;;;;;;;7.00;6.75;;;;;;;;5071534;28;9306;-75
2023/11/16 19:52:00;;;;;;;;;6.75;6.00;;;;;;;;5071351;28;10597;-79
2023/11/16 19:54:25;;;;;;;;;6.00;4.75;;;;;;;;5071118;28;10662;-75
2023/11/16 19:56:51;;;;;;;;;9.25;6.00;;;;;;;;5071389;28;9599;-80
2023/11/16 19:59:16;;;;;;;;;17.75;17.75;;;;;;;;5053952;28;8885;-77
2023/11/16 20:01:41;;;;;;;;;12.00;9.25;;;;;;;;5053308;28;8788;-78
2023/11/16 20:04:06;;;;;;;;;7.50;5.50;;;;;;;;5071154;28;8796;-78
2023/11/16 20:06:32;;;;;;;;;10.25;8.25;;;;;;;;5053250;28;8792;-73
2023/11/16 20:08:57;;;;;;;;;6.00;4.75;;;;;;;;5072173;28;9009;-73
2023/11/16 20:11:22;;;;;;;;;4.00;4.00;;;;;;;;5054799;28;8796;-72
2023/11/16 20:13:50;;;;;;;;;6.50;4.00;;;;;;;;5052421;28;8835;-73
2023/11/16 20:16:17;;;;;;;;;4.00;4.00;;;;;;;;5071166;28;8807;-73
2023/11/16 20:18:45;;;;;;;;;4.00;4.00;;;;;;;;5072746;28;10342;-73
2023/11/16 20:21:11;;;;;;;;;4.50;4.50;;;;;;;;5070675;28;10387;-74
2023/11/16 20:23:36;;;;;;;;;7.00;3.00;;;;;;;;5068723;28;10268;-73
2023/11/16 20:26:03;;;;;;;;;5.50;5.50;;;;;;;;5070301;28;9518;-73
2023/11/16 20:28:30;;;;;;;;;7.75;7.00;;;;;;;;5070092;28;8824;-74
2023/11/16 20:30:57;;;;;;;;;9.00;7.00;;;;;;;;5070299;28;10703;-74
2023/11/16 20:33:22;;;;;;;;;8.50;5.75;;;;;;;;5070324;28;10503;-74
2023/11/16 20:35:48;;;;;;;;;7.00;7.00;;;;;;;;5068164;28;11378;-74
2023/11/16 20:38:13;;;;;;;;;6.00;6.00;;;;;;;;5071702;28;8998;-73
2023/11/16 20:40:40;;;;;;;;;0.50;0.50;;;;;;;;5070789;28;8898;-73
2023/11/16 20:43:05;;;;;;;;;6.00;6.00;;;;;;;;5071994;28;8784;-73
2023/11/16 20:45:30;;;;;;;;;8.75;8.00;;;;;;;;5069748;28;10484;-75
2023/11/16 20:47:59;;;;;;;;;8.25;7.00;;;;;;;;5071047;28;8839;-74
